Aviation Digital Data Service (ADDS)

Output produced by METARs form (2232 UTC 26 February 2020)
found at http://www.aviationweather.gov/metar/data/
 
METAR text: LIRP 262215Z 31019KT CAVOK 11/M10 Q1005 NOSIG
Conditions at: LIRP (PISA (CIV/IT-AFB, IT) observed 2215 UTC 26 February 2020
Temperature: 11.0°C (52°F)
Dewpoint: -10.0°C (14°F) [RH = 22%]
Pressure (altimeter): 29.68 inches Hg (1005.0 mb)
Winds: from the NW (310 degrees) at 22 MPH (19 knots; 9.8 m/s)
Visibility: 6 or more miles (10+ km)
Ceiling: ceiling and visibility are OK
Clouds: unknown
Weather: no significant weather observed at this time

METAR text: LIRP 262145Z 31014KT CAVOK 11/M10 Q1004 NOSIG
Conditions at: LIRP (PISA (CIV/IT-AFB, IT) observed 2145 UTC 26 February 2020
Temperature: 11.0°C (52°F)
Dewpoint: -10.0°C (14°F) [RH = 22%]
Pressure (altimeter): 29.65 inches Hg (1004.0 mb)
Winds: from the NW (310 degrees) at 16 MPH (14 knots; 7.2 m/s)
Visibility: 6 or more miles (10+ km)
Ceiling: ceiling and visibility are OK
Clouds: unknown
Weather: no significant weather observed at this time

METAR text: LIRP 262115Z 31015KT CAVOK 11/M09 Q1004 NOSIG
Conditions at: LIRP (PISA (CIV/IT-AFB, IT) observed 2115 UTC 26 February 2020
Temperature: 11.0°C (52°F)
Dewpoint: -9.0°C (16°F) [RH = 24%]
Pressure (altimeter): 29.65 inches Hg (1004.0 mb)
Winds: from the NW (310 degrees) at 17 MPH (15 knots; 7.7 m/s)
Visibility: 6 or more miles (10+ km)
Ceiling: ceiling and visibility are OK
Clouds: unknown
Weather: no significant weather observed at this time

METAR text: LIRP 262045Z 31018G30KT CAVOK 11/M08 Q1003 NOSIG
Conditions at: LIRP (PISA (CIV/IT-AFB, IT) observed 2045 UTC 26 February 2020
Temperature: 11.0°C (52°F)
Dewpoint: -8.0°C (18°F) [RH = 25%]
Pressure (altimeter): 29.62 inches Hg (1003.0 mb)
Winds: from the NW (310 degrees) at 21 MPH (18 knots; 9.3 m/s)
gusting to 34 MPH (30 knots; 15.4 m/s)
Visibility: 6 or more miles (10+ km)
Ceiling: ceiling and visibility are OK
Clouds: unknown
Weather: no significant weather observed at this time

METAR text: LIRP 262015Z 31019KT CAVOK 11/M07 Q1002 NOSIG
Conditions at: LIRP (PISA (CIV/IT-AFB, IT) observed 2015 UTC 26 February 2020
Temperature: 11.0°C (52°F)
Dewpoint: -7.0°C (19°F) [RH = 28%]
Pressure (altimeter): 29.59 inches Hg (1002.0 mb)
Winds: from the NW (310 degrees) at 22 MPH (19 knots; 9.8 m/s)
Visibility: 6 or more miles (10+ km)
Ceiling: ceiling and visibility are OK
Clouds: unknown
Weather: no significant weather observed at this time

METAR text: LIRP 261945Z 31019KT 9999 FEW035 12/M06 Q1002 NOSIG
Conditions at: LIRP (PISA (CIV/IT-AFB, IT) observed 1945 UTC 26 February 2020
Temperature: 12.0°C (54°F)
Dewpoint: -6.0°C (21°F) [RH = 28%]
Pressure (altimeter): 29.59 inches Hg (1002.0 mb)
Winds: from the NW (310 degrees) at 22 MPH (19 knots; 9.8 m/s)
Visibility: 6 or more miles (10+ km)
Ceiling: at least 12,000 feet AGL
Clouds: few clouds at 3500 feet AGL
Weather: no significant weather observed at this time

METAR text: LIRP 261915Z 32015KT 9999 FEW035 12/M05 Q1002 NOSIG
Conditions at: LIRP (PISA (CIV/IT-AFB, IT) observed 1915 UTC 26 February 2020
Temperature: 12.0°C (54°F)
Dewpoint: -5.0°C (23°F) [RH = 30%]
Pressure (altimeter): 29.59 inches Hg (1002.0 mb)
Winds: from the NW (320 degrees) at 17 MPH (15 knots; 7.7 m/s)
Visibility: 6 or more miles (10+ km)
Ceiling: at least 12,000 feet AGL
Clouds: few clouds at 3500 feet AGL
Weather: no significant weather observed at this time

METAR text: LIRP 261845Z 30014KT 9999 FEW035 12/M04 Q1001 NOSIG
Conditions at: LIRP (PISA (CIV/IT-AFB, IT) observed 1845 UTC 26 February 2020
Temperature: 12.0°C (54°F)
Dewpoint: -4.0°C (25°F) [RH = 32%]
Pressure (altimeter): 29.56 inches Hg (1001.0 mb)
Winds: from the WNW (300 degrees) at 16 MPH (14 knots; 7.2 m/s)
Visibility: 6 or more miles (10+ km)
Ceiling: at least 12,000 feet AGL
Clouds: few clouds at 3500 feet AGL
Weather: no significant weather observed at this time

METAR text: LIRP 261815Z 31012KT 9999 FEW035 12/M03 Q1001 NOSIG
Conditions at: LIRP (PISA (CIV/IT-AFB, IT) observed 1815 UTC 26 February 2020
Temperature: 12.0°C (54°F)
Dewpoint: -3.0°C (27°F) [RH = 35%]
Pressure (altimeter): 29.56 inches Hg (1001.0 mb)
Winds: from the NW (310 degrees) at 14 MPH (12 knots; 6.2 m/s)
Visibility: 6 or more miles (10+ km)
Ceiling: at least 12,000 feet AGL
Clouds: few clouds at 3500 feet AGL
Weather: no significant weather observed at this time

METAR text: LIRP 261745Z 30013KT 9999 FEW035 12/M02 Q1000 NOSIG
Conditions at: LIRP (PISA (CIV/IT-AFB, IT) observed 1745 UTC 26 February 2020
Temperature: 12.0°C (54°F)
Dewpoint: -2.0°C (28°F) [RH = 38%]
Pressure (altimeter): 29.53 inches Hg (1000.0 mb)
Winds: from the WNW (300 degrees) at 15 MPH (13 knots; 6.7 m/s)
Visibility: 6 or more miles (10+ km)
Ceiling: at least 12,000 feet AGL
Clouds: few clouds at 3500 feet AGL
Weather: no significant weather observed at this time

METAR text: LIRP 261715Z 28007KT 9999 FEW020 SCT035 10/02 Q0999 NOSIG
Conditions at: LIRP (PISA (CIV/IT-AFB, IT) observed 1715 UTC 26 February 2020
Temperature: 10.0°C (50°F)
Dewpoint: 2.0°C (36°F) [RH = 57%]
Pressure (altimeter): 29.50 inches Hg (999.0 mb)
Winds: from the W (280 degrees) at 8 MPH (7 knots; 3.6 m/s)
Visibility: 6 or more miles (10+ km)
Ceiling: at least 12,000 feet AGL
Clouds: few clouds at 2000 feet AGL
scattered clouds at 3500 feet AGL
Weather: no significant weather observed at this time

METAR text: LIRP 261645Z VRB02KT 9999 SCT035 10/02 Q0998 NOSIG
Conditions at: LIRP (PISA (CIV/IT-AFB, IT) observed 1645 UTC 26 February 2020
Temperature: 10.0°C (50°F)
Dewpoint: 2.0°C (36°F) [RH = 57%]
Pressure (altimeter): 29.47 inches Hg (998.0 mb)
Winds: variable direction winds at 2 MPH (2 knots; 1.0 m/s)
Visibility: 6 or more miles (10+ km)
Ceiling: at least 12,000 feet AGL
Clouds: scattered clouds at 3500 feet AGL
Weather: no significant weather observed at this time

METAR text: LIRP 261615Z 33009KT 9999 SCT030 BKN080 12/01 Q0997 NOSIG
Conditions at: LIRP (PISA (CIV/IT-AFB, IT) observed 1615 UTC 26 February 2020
Temperature: 12.0°C (54°F)
Dewpoint: 1.0°C (34°F) [RH = 47%]
Pressure (altimeter): 29.44 inches Hg (997.0 mb)
Winds: from the NNW (330 degrees) at 10 MPH (9 knots; 4.6 m/s)
Visibility: 6 or more miles (10+ km)
Ceiling: 8000 feet AGL
Clouds: scattered clouds at 3000 feet AGL
broken clouds at 8000 feet AGL
Weather: no significant weather observed at this time

METAR text: LIRP 261545Z 29018KT 9999 FEW025 SCT030 BKN080 12/00 Q0996 TEMPO 27020G40KT
Conditions at: LIRP (PISA (CIV/IT-AFB, IT) observed 1545 UTC 26 February 2020
Temperature: 12.0°C (54°F)
Dewpoint: 0.0°C (32°F) [RH = 44%]
Pressure (altimeter): 29.41 inches Hg (996.0 mb)
Winds: from the WNW (290 degrees) at 21 MPH (18 knots; 9.3 m/s)
Visibility: 6 or more miles (10+ km)
Ceiling: 8000 feet AGL
Clouds: few clouds at 2500 feet AGL
scattered clouds at 3000 feet AGL
broken clouds at 8000 feet AGL
Weather: no significant weather observed at this time

METAR text: LIRP 261515Z 31024G34KT 9999 FEW020 SCT030 BKN080 12/01 Q0995 NOSIG
Conditions at: LIRP (PISA (CIV/IT-AFB, IT) observed 1515 UTC 26 February 2020
Temperature: 12.0°C (54°F)
Dewpoint: 1.0°C (34°F) [RH = 47%]
Pressure (altimeter): 29.38 inches Hg (995.0 mb)
Winds: from the NW (310 degrees) at 28 MPH (24 knots; 12.3 m/s)
gusting to 39 MPH (34 knots; 17.5 m/s)
Visibility: 6 or more miles (10+ km)
Ceiling: 8000 feet AGL
Clouds: few clouds at 2000 feet AGL
scattered clouds at 3000 feet AGL
broken clouds at 8000 feet AGL
Weather: no significant weather observed at this time

METAR text: LIRP 261445Z 26023G36KT 9999 SCT030 BKN070 14/03 Q0995 NOSIG
Conditions at: LIRP (PISA (CIV/IT-AFB, IT) observed 1445 UTC 26 February 2020
Temperature: 14.0°C (57°F)
Dewpoint: 3.0°C (37°F) [RH = 47%]
Pressure (altimeter): 29.38 inches Hg (995.0 mb)
Winds: from the W (260 degrees) at 26 MPH (23 knots; 11.8 m/s)
gusting to 41 MPH (36 knots; 18.5 m/s)
Visibility: 6 or more miles (10+ km)
Ceiling: 7000 feet AGL
Clouds: scattered clouds at 3000 feet AGL
broken clouds at 7000 feet AGL
Weather: no significant weather observed at this time

METAR text: LIRP 261415Z 26027G39KT 9999 SCT030 BKN070 14/01 Q0996 NOSIG
Conditions at: LIRP (PISA (CIV/IT-AFB, IT) observed 1415 UTC 26 February 2020
Temperature: 14.0°C (57°F)
Dewpoint: 1.0°C (34°F) [RH = 41%]
Pressure (altimeter): 29.41 inches Hg (996.0 mb)
Winds: from the W (260 degrees) at 31 MPH (27 knots; 13.9 m/s)
gusting to 45 MPH (39 knots; 20.1 m/s)
Visibility: 6 or more miles (10+ km)
Ceiling: 7000 feet AGL
Clouds: scattered clouds at 3000 feet AGL
broken clouds at 7000 feet AGL
Weather: no significant weather observed at this time

METAR text: LIRP 261345Z 25027G37KT 9999 FEW030 SCT080 13/05 Q0997 RMK WS ALL RWY NOSIG
Conditions at: LIRP (PISA (CIV/IT-AFB, IT) observed 1345 UTC 26 February 2020
Temperature: 13.0°C (55°F)
Dewpoint: 5.0°C (41°F) [RH = 58%]
Pressure (altimeter): 29.44 inches Hg (997.0 mb)
Winds: from the WSW (250 degrees) at 31 MPH (27 knots; 13.9 m/s)
gusting to 43 MPH (37 knots; 19.0 m/s)
Visibility: 6 or more miles (10+ km)
Ceiling: at least 12,000 feet AGL
Clouds: few clouds at 3000 feet AGL
scattered clouds at 8000 feet AGL
Weather: no significant weather observed at this time

METAR text: LIRP 261315Z 26031G43KT 9999 SCT030 14/04 Q0998 RMK WS ALL RWY NOSIG
Conditions at: LIRP (PISA (CIV/IT-AFB, IT) observed 1315 UTC 26 February 2020
Temperature: 14.0°C (57°F)
Dewpoint: 4.0°C (39°F) [RH = 51%]
Pressure (altimeter): 29.47 inches Hg (998.0 mb)
Winds: from the W (260 degrees) at 36 MPH (31 knots; 15.9 m/s)
gusting to 49 MPH (43 knots; 22.1 m/s)
Visibility: 6 or more miles (10+ km)
Ceiling: at least 12,000 feet AGL
Clouds: scattered clouds at 3000 feet AGL
Weather: no significant weather observed at this time

METAR text: LIRP 261245Z 25032G45KT 9999 SCT030 14/05 Q0999 RMK WS ALL RWY NOSIG
Conditions at: LIRP (PISA (CIV/IT-AFB, IT) observed 1245 UTC 26 February 2020
Temperature: 14.0°C (57°F)
Dewpoint: 5.0°C (41°F) [RH = 55%]
Pressure (altimeter): 29.50 inches Hg (999.0 mb)
Winds: from the WSW (250 degrees) at 37 MPH (32 knots; 16.5 m/s)
gusting to 52 MPH (45 knots; 23.1 m/s)
Visibility: 6 or more miles (10+ km)
Ceiling: at least 12,000 feet AGL
Clouds: scattered clouds at 3000 feet AGL
Weather: no significant weather observed at this time

METAR text: LIRP 261215Z 26032G45KT 9999 FEW030 14/06 Q0999 RMK WS ALL RWY NOSIG
Conditions at: LIRP (PISA (CIV/IT-AFB, IT) observed 1215 UTC 26 February 2020
Temperature: 14.0°C (57°F)
Dewpoint: 6.0°C (43°F) [RH = 58%]
Pressure (altimeter): 29.50 inches Hg (999.0 mb)
Winds: from the W (260 degrees) at 37 MPH (32 knots; 16.5 m/s)
gusting to 52 MPH (45 knots; 23.1 m/s)
Visibility: 6 or more miles (10+ km)
Ceiling: at least 12,000 feet AGL
Clouds: few clouds at 3000 feet AGL
Weather: no significant weather observed at this time

METAR text: LIRP 261145Z 25028G39KT 9999 FEW030 14/06 Q0999 RMK WS ALL RWY NOSIG
Conditions at: LIRP (PISA (CIV/IT-AFB, IT) observed 1145 UTC 26 February 2020
Temperature: 14.0°C (57°F)
Dewpoint: 6.0°C (43°F) [RH = 58%]
Pressure (altimeter): 29.50 inches Hg (999.0 mb)
Winds: from the WSW (250 degrees) at 32 MPH (28 knots; 14.4 m/s)
gusting to 45 MPH (39 knots; 20.1 m/s)
Visibility: 6 or more miles (10+ km)
Ceiling: at least 12,000 feet AGL
Clouds: few clouds at 3000 feet AGL
Weather: no significant weather observed at this time

METAR text: LIRP 261115Z 26029G40KT 9999 SCT035 14/06 Q1000 NOSIG
Conditions at: LIRP (PISA (CIV/IT-AFB, IT) observed 1115 UTC 26 February 2020
Temperature: 14.0°C (57°F)
Dewpoint: 6.0°C (43°F) [RH = 58%]
Pressure (altimeter): 29.53 inches Hg (1000.0 mb)
Winds: from the W (260 degrees) at 33 MPH (29 knots; 14.9 m/s)
gusting to 46 MPH (40 knots; 20.6 m/s)
Visibility: 6 or more miles (10+ km)
Ceiling: at least 12,000 feet AGL
Clouds: scattered clouds at 3500 feet AGL
Weather: no significant weather observed at this time

METAR text: LIRP 261045Z 25025G37KT 9999 FEW030 SCT035 15/07 Q1000 NOSIG
Conditions at: LIRP (PISA (CIV/IT-AFB, IT) observed 1045 UTC 26 February 2020
Temperature: 15.0°C (59°F)
Dewpoint: 7.0°C (45°F) [RH = 59%]
Pressure (altimeter): 29.53 inches Hg (1000.0 mb)
Winds: from the WSW (250 degrees) at 29 MPH (25 knots; 12.9 m/s)
gusting to 43 MPH (37 knots; 19.0 m/s)
Visibility: 6 or more miles (10+ km)
Ceiling: at least 12,000 feet AGL
Clouds: few clouds at 3000 feet AGL
scattered clouds at 3500 feet AGL
Weather: no significant weather observed at this time

METAR text: LIRP 261015Z 26023G33KT 9999 FEW030 FEW035TCU 14/07 Q1000 TEMPO 27025G35KT
Conditions at: LIRP (PISA (CIV/IT-AFB, IT) observed 1015 UTC 26 February 2020
Temperature: 14.0°C (57°F)
Dewpoint: 7.0°C (45°F) [RH = 63%]
Pressure (altimeter): 29.53 inches Hg (1000.0 mb)
Winds: from the W (260 degrees) at 26 MPH (23 knots; 11.8 m/s)
gusting to 38 MPH (33 knots; 17.0 m/s)
Visibility: 6 or more miles (10+ km)
Ceiling: at least 12,000 feet AGL
Clouds: few clouds at 3000 feet AGL
few clouds at 3500 feet AGL
Weather: no significant weather observed at this time

METAR text: LIRP 260945Z 26024KT 9999 FEW030 FEW035TCU 14/07 Q1000 TEMPO 27025G35KT
Conditions at: LIRP (PISA (CIV/IT-AFB, IT) observed 0945 UTC 26 February 2020
Temperature: 14.0°C (57°F)
Dewpoint: 7.0°C (45°F) [RH = 63%]
Pressure (altimeter): 29.53 inches Hg (1000.0 mb)
Winds: from the W (260 degrees) at 28 MPH (24 knots; 12.3 m/s)
Visibility: 6 or more miles (10+ km)
Ceiling: at least 12,000 feet AGL
Clouds: few clouds at 3000 feet AGL
few clouds at 3500 feet AGL
Weather: no significant weather observed at this time

METAR text: LIRP 260915Z 27026KT 9999 FEW025 FEW030TCU 14/07 Q1001 TEMPO 27025G35KT
Conditions at: LIRP (PISA (CIV/IT-AFB, IT) observed 0915 UTC 26 February 2020
Temperature: 14.0°C (57°F)
Dewpoint: 7.0°C (45°F) [RH = 63%]
Pressure (altimeter): 29.56 inches Hg (1001.0 mb)
Winds: from the W (270 degrees) at 30 MPH (26 knots; 13.4 m/s)
Visibility: 6 or more miles (10+ km)
Ceiling: at least 12,000 feet AGL
Clouds: few clouds at 2500 feet AGL
few clouds at 3000 feet AGL
Weather: no significant weather observed at this time

METAR text: LIRP 260845Z 27027KT 9999 SCT025 FEW030TCU 14/07 Q1001 NOSIG
Conditions at: LIRP (PISA (CIV/IT-AFB, IT) observed 0845 UTC 26 February 2020
Temperature: 14.0°C (57°F)
Dewpoint: 7.0°C (45°F) [RH = 63%]
Pressure (altimeter): 29.56 inches Hg (1001.0 mb)
Winds: from the W (270 degrees) at 31 MPH (27 knots; 13.9 m/s)
Visibility: 6 or more miles (10+ km)
Ceiling: at least 12,000 feet AGL
Clouds: scattered clouds at 2500 feet AGL
few clouds at 3000 feet AGL
Weather: no significant weather observed at this time

METAR text: LIRP 260815Z 27025G36KT 9999 FEW025 13/07 Q1000 NOSIG
Conditions at: LIRP (PISA (CIV/IT-AFB, IT) observed 0815 UTC 26 February 2020
Temperature: 13.0°C (55°F)
Dewpoint: 7.0°C (45°F) [RH = 67%]
Pressure (altimeter): 29.53 inches Hg (1000.0 mb)
Winds: from the W (270 degrees) at 29 MPH (25 knots; 12.9 m/s)
gusting to 41 MPH (36 knots; 18.5 m/s)
Visibility: 6 or more miles (10+ km)
Ceiling: at least 12,000 feet AGL
Clouds: few clouds at 2500 feet AGL
Weather: no significant weather observed at this time

METAR text: LIRP 260745Z 26020G30KT 9999 FEW025 13/07 Q1000 NOSIG
Conditions at: LIRP (PISA (CIV/IT-AFB, IT) observed 0745 UTC 26 February 2020
Temperature: 13.0°C (55°F)
Dewpoint: 7.0°C (45°F) [RH = 67%]
Pressure (altimeter): 29.53 inches Hg (1000.0 mb)
Winds: from the W (260 degrees) at 23 MPH (20 knots; 10.3 m/s)
gusting to 34 MPH (30 knots; 15.4 m/s)
Visibility: 6 or more miles (10+ km)
Ceiling: at least 12,000 feet AGL
Clouds: few clouds at 2500 feet AGL
Weather: no significant weather observed at this time

METAR text: LIRP 260715Z 25023KT 9999 FEW025 13/07 Q1000 NOSIG
Conditions at: LIRP (PISA (CIV/IT-AFB, IT) observed 0715 UTC 26 February 2020
Temperature: 13.0°C (55°F)
Dewpoint: 7.0°C (45°F) [RH = 67%]
Pressure (altimeter): 29.53 inches Hg (1000.0 mb)
Winds: from the WSW (250 degrees) at 26 MPH (23 knots; 11.8 m/s)
Visibility: 6 or more miles (10+ km)
Ceiling: at least 12,000 feet AGL
Clouds: few clouds at 2500 feet AGL
Weather: no significant weather observed at this time

METAR text: LIRP 260645Z 25020KT 9999 SCT040 13/07 Q1000 NOSIG
Conditions at: LIRP (PISA (CIV/IT-AFB, IT) observed 0645 UTC 26 February 2020
Temperature: 13.0°C (55°F)
Dewpoint: 7.0°C (45°F) [RH = 67%]
Pressure (altimeter): 29.53 inches Hg (1000.0 mb)
Winds: from the WSW (250 degrees) at 23 MPH (20 knots; 10.3 m/s)
Visibility: 6 or more miles (10+ km)
Ceiling: at least 12,000 feet AGL
Clouds: scattered clouds at 4000 feet AGL
Weather: no significant weather observed at this time

METAR text: LIRP 260615Z 24020KT 9999 BKN040 13/07 Q1000 NOSIG
Conditions at: LIRP (PISA (CIV/IT-AFB, IT) observed 0615 UTC 26 February 2020
Temperature: 13.0°C (55°F)
Dewpoint: 7.0°C (45°F) [RH = 67%]
Pressure (altimeter): 29.53 inches Hg (1000.0 mb)
Winds: from the WSW (240 degrees) at 23 MPH (20 knots; 10.3 m/s)
Visibility: 6 or more miles (10+ km)
Ceiling: 4000 feet AGL
Clouds: broken clouds at 4000 feet AGL
Weather: no significant weather observed at this time

METAR text: LIRP 260545Z 24017KT 9999 BKN040 13/07 Q1000 NOSIG
Conditions at: LIRP (PISA (CIV/IT-AFB, IT) observed 0545 UTC 26 February 2020
Temperature: 13.0°C (55°F)
Dewpoint: 7.0°C (45°F) [RH = 67%]
Pressure (altimeter): 29.53 inches Hg (1000.0 mb)
Winds: from the WSW (240 degrees) at 20 MPH (17 knots; 8.7 m/s)
Visibility: 6 or more miles (10+ km)
Ceiling: 4000 feet AGL
Clouds: broken clouds at 4000 feet AGL
Weather: no significant weather observed at this time

METAR text: LIRP 260515Z 23019KT 9999 BKN025 13/07 Q1001 NOSIG
Conditions at: LIRP (PISA (CIV/IT-AFB, IT) observed 0515 UTC 26 February 2020
Temperature: 13.0°C (55°F)
Dewpoint: 7.0°C (45°F) [RH = 67%]
Pressure (altimeter): 29.56 inches Hg (1001.0 mb)
Winds: from the SW (230 degrees) at 22 MPH (19 knots; 9.8 m/s)
Visibility: 6 or more miles (10+ km)
Ceiling: 2500 feet AGL
Clouds: broken clouds at 2500 feet AGL
Weather: no significant weather observed at this time

METAR text: LIRP 260445Z 24019KT 9999 BKN025 13/09 Q1001 NOSIG
Conditions at: LIRP (PISA (CIV/IT-AFB, IT) observed 0445 UTC 26 February 2020
Temperature: 13.0°C (55°F)
Dewpoint: 9.0°C (48°F) [RH = 77%]
Pressure (altimeter): 29.56 inches Hg (1001.0 mb)
Winds: from the WSW (240 degrees) at 22 MPH (19 knots; 9.8 m/s)
Visibility: 6 or more miles (10+ km)
Ceiling: 2500 feet AGL
Clouds: broken clouds at 2500 feet AGL
Weather: no significant weather observed at this time

METAR text: LIRP 260415Z 03016KT 9999 BKN030 13/11 Q1001 NOSIG
Conditions at: LIRP (PISA (CIV/IT-AFB, IT) observed 0415 UTC 26 February 2020
Temperature: 13.0°C (55°F)
Dewpoint: 11.0°C (52°F) [RH = 88%]
Pressure (altimeter): 29.56 inches Hg (1001.0 mb)
Winds: from the NNE (30 degrees) at 18 MPH (16 knots; 8.2 m/s)
Visibility: 6 or more miles (10+ km)
Ceiling: 3000 feet AGL
Clouds: broken clouds at 3000 feet AGL
Weather: no significant weather observed at this time

METAR text: LIRP 260345Z 30016KT 9999 BKN025 13/11 Q1001 NOSIG
Conditions at: LIRP (PISA (CIV/IT-AFB, IT) observed 0345 UTC 26 February 2020
Temperature: 13.0°C (55°F)
Dewpoint: 11.0°C (52°F) [RH = 88%]
Pressure (altimeter): 29.56 inches Hg (1001.0 mb)
Winds: from the WNW (300 degrees) at 18 MPH (16 knots; 8.2 m/s)
Visibility: 6 or more miles (10+ km)
Ceiling: 2500 feet AGL
Clouds: broken clouds at 2500 feet AGL
Weather: no significant weather observed at this time

METAR text: LIRP 260315Z 23013KT 9999 BKN025 13/11 Q1001 NOSIG
Conditions at: LIRP (PISA (CIV/IT-AFB, IT) observed 0315 UTC 26 February 2020
Temperature: 13.0°C (55°F)
Dewpoint: 11.0°C (52°F) [RH = 88%]
Pressure (altimeter): 29.56 inches Hg (1001.0 mb)
Winds: from the SW (230 degrees) at 15 MPH (13 knots; 6.7 m/s)
Visibility: 6 or more miles (10+ km)
Ceiling: 2500 feet AGL
Clouds: broken clouds at 2500 feet AGL
Weather: no significant weather observed at this time

METAR text: LIRP 260245Z 23013KT 9999 BKN025 13/11 Q1001 NOSIG
Conditions at: LIRP (PISA (CIV/IT-AFB, IT) observed 0245 UTC 26 February 2020
Temperature: 13.0°C (55°F)
Dewpoint: 11.0°C (52°F) [RH = 88%]
Pressure (altimeter): 29.56 inches Hg (1001.0 mb)
Winds: from the SW (230 degrees) at 15 MPH (13 knots; 6.7 m/s)
Visibility: 6 or more miles (10+ km)
Ceiling: 2500 feet AGL
Clouds: broken clouds at 2500 feet AGL
Weather: no significant weather observed at this time

METAR text: LIRP 260215Z 23012KT 9999 BKN025 13/11 Q1001 NOSIG
Conditions at: LIRP (PISA (CIV/IT-AFB, IT) observed 0215 UTC 26 February 2020
Temperature: 13.0°C (55°F)
Dewpoint: 11.0°C (52°F) [RH = 88%]
Pressure (altimeter): 29.56 inches Hg (1001.0 mb)
Winds: from the SW (230 degrees) at 14 MPH (12 knots; 6.2 m/s)
Visibility: 6 or more miles (10+ km)
Ceiling: 2500 feet AGL
Clouds: broken clouds at 2500 feet AGL
Weather: no significant weather observed at this time

METAR text: LIRP 260115Z 23021KT 9999 BKN025 13/11 Q1002 NOSIG
Conditions at: LIRP (PISA (CIV/IT-AFB, IT) observed 0115 UTC 26 February 2020
Temperature: 13.0°C (55°F)
Dewpoint: 11.0°C (52°F) [RH = 88%]
Pressure (altimeter): 29.59 inches Hg (1002.0 mb)
Winds: from the SW (230 degrees) at 24 MPH (21 knots; 10.8 m/s)
Visibility: 6 or more miles (10+ km)
Ceiling: 2500 feet AGL
Clouds: broken clouds at 2500 feet AGL
Weather: no significant weather observed at this time

METAR text: LIRP 260045Z 23021KT 9999 BKN025 13/11 Q1002 NOSIG
Conditions at: LIRP (PISA (CIV/IT-AFB, IT) observed 0045 UTC 26 February 2020
Temperature: 13.0°C (55°F)
Dewpoint: 11.0°C (52°F) [RH = 88%]
Pressure (altimeter): 29.59 inches Hg (1002.0 mb)
Winds: from the SW (230 degrees) at 24 MPH (21 knots; 10.8 m/s)
Visibility: 6 or more miles (10+ km)
Ceiling: 2500 feet AGL
Clouds: broken clouds at 2500 feet AGL
Weather: no significant weather observed at this time

METAR text: LIRP 260015Z 23023KT 9999 SCT030 13/11 Q1002 NOSIG
Conditions at: LIRP (PISA (CIV/IT-AFB, IT) observed 0015 UTC 26 February 2020
Temperature: 13.0°C (55°F)
Dewpoint: 11.0°C (52°F) [RH = 88%]
Pressure (altimeter): 29.59 inches Hg (1002.0 mb)
Winds: from the SW (230 degrees) at 26 MPH (23 knots; 11.8 m/s)
Visibility: 6 or more miles (10+ km)
Ceiling: at least 12,000 feet AGL
Clouds: scattered clouds at 3000 feet AGL
Weather: no significant weather observed at this time

METAR text: LIRP 252345Z 23013KT 9999 BKN025 13/10 Q1003 NOSIG
Conditions at: LIRP (PISA (CIV/IT-AFB, IT) observed 2345 UTC 25 February 2020
Temperature: 13.0°C (55°F)
Dewpoint: 10.0°C (50°F) [RH = 82%]
Pressure (altimeter): 29.62 inches Hg (1003.0 mb)
Winds: from the SW (230 degrees) at 15 MPH (13 knots; 6.7 m/s)
Visibility: 6 or more miles (10+ km)
Ceiling: 2500 feet AGL
Clouds: broken clouds at 2500 feet AGL
Weather: no significant weather observed at this time

METAR text: LIRP 252315Z 23015KT 9999 BKN025 13/10 Q1004 NOSIG
Conditions at: LIRP (PISA (CIV/IT-AFB, IT) observed 2315 UTC 25 February 2020
Temperature: 13.0°C (55°F)
Dewpoint: 10.0°C (50°F) [RH = 82%]
Pressure (altimeter): 29.65 inches Hg (1004.0 mb)
Winds: from the SW (230 degrees) at 17 MPH (15 knots; 7.7 m/s)
Visibility: 6 or more miles (10+ km)
Ceiling: 2500 feet AGL
Clouds: broken clouds at 2500 feet AGL
Weather: no significant weather observed at this time

METAR text: LIRP 252245Z 24016KT 9999 BKN025 13/10 Q1004 NOSIG
Conditions at: LIRP (PISA (CIV/IT-AFB, IT) observed 2245 UTC 25 February 2020
Temperature: 13.0°C (55°F)
Dewpoint: 10.0°C (50°F) [RH = 82%]
Pressure (altimeter): 29.65 inches Hg (1004.0 mb)
Winds: from the WSW (240 degrees) at 18 MPH (16 knots; 8.2 m/s)
Visibility: 6 or more miles (10+ km)
Ceiling: 2500 feet AGL
Clouds: broken clouds at 2500 feet AGL
Weather: no significant weather observed at this time

METAR text: LIRP 252215Z 20009KT 9999 BKN030 12/12 Q1005 NOSIG
Conditions at: LIRP (PISA (CIV/IT-AFB, IT) observed 2215 UTC 25 February 2020
Temperature: 12.0°C (54°F)
Dewpoint: 12.0°C (54°F) [RH = 100%]
Pressure (altimeter): 29.68 inches Hg (1005.0 mb)
Winds: from the SSW (200 degrees) at 10 MPH (9 knots; 4.6 m/s)
Visibility: 6 or more miles (10+ km)
Ceiling: 3000 feet AGL
Clouds: broken clouds at 3000 feet AGL
Weather: no significant weather observed at this time

METAR text: LIRP 252145Z 20008KT 9999 BKN030 12/12 Q1005 NOSIG
Conditions at: LIRP (PISA (CIV/IT-AFB, IT) observed 2145 UTC 25 February 2020
Temperature: 12.0°C (54°F)
Dewpoint: 12.0°C (54°F) [RH = 100%]
Pressure (altimeter): 29.68 inches Hg (1005.0 mb)
Winds: from the SSW (200 degrees) at 9 MPH (8 knots; 4.1 m/s)
Visibility: 6 or more miles (10+ km)
Ceiling: 3000 feet AGL
Clouds: broken clouds at 3000 feet AGL
Weather: no significant weather observed at this time

METAR text: LIRP 252115Z 18003KT 9999 SCT015 SCT030 12/12 Q1006 NOSIG
Conditions at: LIRP (PISA (CIV/IT-AFB, IT) observed 2115 UTC 25 February 2020
Temperature: 12.0°C (54°F)
Dewpoint: 12.0°C (54°F) [RH = 100%]
Pressure (altimeter): 29.70 inches Hg (1006.0 mb)
Winds: from the S (180 degrees) at 3 MPH (3 knots; 1.5 m/s)
Visibility: 6 or more miles (10+ km)
Ceiling: at least 12,000 feet AGL
Clouds: scattered clouds at 1500 feet AGL
scattered clouds at 3000 feet AGL
Weather: no significant weather observed at this time

METAR text: LIRP 252045Z 20003KT 9999 SCT030 12/11 Q1006 NOSIG
Conditions at: LIRP (PISA (CIV/IT-AFB, IT) observed 2045 UTC 25 February 2020
Temperature: 12.0°C (54°F)
Dewpoint: 11.0°C (52°F) [RH = 94%]
Pressure (altimeter): 29.70 inches Hg (1006.0 mb)
Winds: from the SSW (200 degrees) at 3 MPH (3 knots; 1.5 m/s)
Visibility: 6 or more miles (10+ km)
Ceiling: at least 12,000 feet AGL
Clouds: scattered clouds at 3000 feet AGL
Weather: no significant weather observed at this time

METAR text: LIRP 252015Z 30002KT CAVOK 11/11 Q1006 NOSIG
Conditions at: LIRP (PISA (CIV/IT-AFB, IT) observed 2015 UTC 25 February 2020
Temperature: 11.0°C (52°F)
Dewpoint: 11.0°C (52°F) [RH = 100%]
Pressure (altimeter): 29.70 inches Hg (1006.0 mb)
Winds: from the WNW (300 degrees) at 2 MPH (2 knots; 1.0 m/s)
Visibility: 6 or more miles (10+ km)
Ceiling: ceiling and visibility are OK
Clouds: unknown
Weather: no significant weather observed at this time

METAR text: LIRP 251945Z 30002KT CAVOK 11/11 Q1006 NOSIG
Conditions at: LIRP (PISA (CIV/IT-AFB, IT) observed 1945 UTC 25 February 2020
Temperature: 11.0°C (52°F)
Dewpoint: 11.0°C (52°F) [RH = 100%]
Pressure (altimeter): 29.70 inches Hg (1006.0 mb)
Winds: from the WNW (300 degrees) at 2 MPH (2 knots; 1.0 m/s)
Visibility: 6 or more miles (10+ km)
Ceiling: ceiling and visibility are OK
Clouds: unknown
Weather: no significant weather observed at this time

METAR text: LIRP 251915Z 10005KT CAVOK 11/11 Q1006 NOSIG
Conditions at: LIRP (PISA (CIV/IT-AFB, IT) observed 1915 UTC 25 February 2020
Temperature: 11.0°C (52°F)
Dewpoint: 11.0°C (52°F) [RH = 100%]
Pressure (altimeter): 29.70 inches Hg (1006.0 mb)
Winds: from the E (100 degrees) at 6 MPH (5 knots; 2.6 m/s)
Visibility: 6 or more miles (10+ km)
Ceiling: ceiling and visibility are OK
Clouds: unknown
Weather: no significant weather observed at this time

METAR text: LIRP 251845Z VRB01KT 9999 FEW030 13/12 Q1007 NOSIG
Conditions at: LIRP (PISA (CIV/IT-AFB, IT) observed 1845 UTC 25 February 2020
Temperature: 13.0°C (55°F)
Dewpoint: 12.0°C (54°F) [RH = 94%]
Pressure (altimeter): 29.73 inches Hg (1007.0 mb)
Winds: variable direction winds at 1 MPH (1 knots; 0.5 m/s)
Visibility: 6 or more miles (10+ km)
Ceiling: at least 12,000 feet AGL
Clouds: few clouds at 3000 feet AGL
Weather: no significant weather observed at this time

METAR text: LIRP 251815Z 33003KT 9999 SCT030 13/11 Q1007 NOSIG
Conditions at: LIRP (PISA (CIV/IT-AFB, IT) observed 1815 UTC 25 February 2020
Temperature: 13.0°C (55°F)
Dewpoint: 11.0°C (52°F) [RH = 88%]
Pressure (altimeter): 29.73 inches Hg (1007.0 mb)
Winds: from the NNW (330 degrees) at 3 MPH (3 knots; 1.5 m/s)
Visibility: 6 or more miles (10+ km)
Ceiling: at least 12,000 feet AGL
Clouds: scattered clouds at 3000 feet AGL
Weather: no significant weather observed at this time

METAR text: LIRP 251745Z VRB02KT 9999 SCT030 13/11 Q1007 NOSIG
Conditions at: LIRP (PISA (CIV/IT-AFB, IT) observed 1745 UTC 25 February 2020
Temperature: 13.0°C (55°F)
Dewpoint: 11.0°C (52°F) [RH = 88%]
Pressure (altimeter): 29.73 inches Hg (1007.0 mb)
Winds: variable direction winds at 2 MPH (2 knots; 1.0 m/s)
Visibility: 6 or more miles (10+ km)
Ceiling: at least 12,000 feet AGL
Clouds: scattered clouds at 3000 feet AGL
Weather: no significant weather observed at this time

METAR text: LIRP 251715Z 14003KT 9999 SCT030 14/10 Q1007 NOSIG
Conditions at: LIRP (PISA (CIV/IT-AFB, IT) observed 1715 UTC 25 February 2020
Temperature: 14.0°C (57°F)
Dewpoint: 10.0°C (50°F) [RH = 77%]
Pressure (altimeter): 29.73 inches Hg (1007.0 mb)
Winds: from the SE (140 degrees) at 3 MPH (3 knots; 1.5 m/s)
Visibility: 6 or more miles (10+ km)
Ceiling: at least 12,000 feet AGL
Clouds: scattered clouds at 3000 feet AGL
Weather: no significant weather observed at this time

METAR text: LIRP 251645Z 22005KT 9999 FEW025 SCT040 14/09 Q1008 NOSIG
Conditions at: LIRP (PISA (CIV/IT-AFB, IT) observed 1645 UTC 25 February 2020
Temperature: 14.0°C (57°F)
Dewpoint: 9.0°C (48°F) [RH = 72%]
Pressure (altimeter): 29.76 inches Hg (1008.0 mb)
Winds: from the SW (220 degrees) at 6 MPH (5 knots; 2.6 m/s)
Visibility: 6 or more miles (10+ km)
Ceiling: at least 12,000 feet AGL
Clouds: few clouds at 2500 feet AGL
scattered clouds at 4000 feet AGL
Weather: no significant weather observed at this time

METAR text: LIRP 251615Z 25005KT 220V290 9999 FEW025 SCT040 15/09 Q1008 NOSIG
Conditions at: LIRP (PISA (CIV/IT-AFB, IT) observed 1615 UTC 25 February 2020
Temperature: 15.0°C (59°F)
Dewpoint: 9.0°C (48°F) [RH = 67%]
Pressure (altimeter): 29.76 inches Hg (1008.0 mb)
Winds: from the WSW (250 degrees) at 6 MPH (5 knots; 2.6 m/s)
Visibility: 6 or more miles (10+ km)
Ceiling: at least 12,000 feet AGL
Clouds: few clouds at 2500 feet AGL
scattered clouds at 4000 feet AGL
Weather: no significant weather observed at this time

METAR text: LIRP 251545Z 24009KT 9999 FEW025 SCT040 15/10 Q1008 NOSIG
Conditions at: LIRP (PISA (CIV/IT-AFB, IT) observed 1545 UTC 25 February 2020
Temperature: 15.0°C (59°F)
Dewpoint: 10.0°C (50°F) [RH = 72%]
Pressure (altimeter): 29.76 inches Hg (1008.0 mb)
Winds: from the WSW (240 degrees) at 10 MPH (9 knots; 4.6 m/s)
Visibility: 6 or more miles (10+ km)
Ceiling: at least 12,000 feet AGL
Clouds: few clouds at 2500 feet AGL
scattered clouds at 4000 feet AGL
Weather: no significant weather observed at this time

METAR text: LIRP 251515Z 23010KT 9999 FEW025 15/11 Q1009 NOSIG
Conditions at: LIRP (PISA (CIV/IT-AFB, IT) observed 1515 UTC 25 February 2020
Temperature: 15.0°C (59°F)
Dewpoint: 11.0°C (52°F) [RH = 77%]
Pressure (altimeter): 29.79 inches Hg (1009.0 mb)
Winds: from the SW (230 degrees) at 12 MPH (10 knots; 5.1 m/s)
Visibility: 6 or more miles (10+ km)
Ceiling: at least 12,000 feet AGL
Clouds: few clouds at 2500 feet AGL
Weather: no significant weather observed at this time

METAR text: LIRP 251445Z 22014KT 9999 FEW025 15/12 Q1009 NOSIG
Conditions at: LIRP (PISA (CIV/IT-AFB, IT) observed 1445 UTC 25 February 2020
Temperature: 15.0°C (59°F)
Dewpoint: 12.0°C (54°F) [RH = 82%]
Pressure (altimeter): 29.79 inches Hg (1009.0 mb)
Winds: from the SW (220 degrees) at 16 MPH (14 knots; 7.2 m/s)
Visibility: 6 or more miles (10+ km)
Ceiling: at least 12,000 feet AGL
Clouds: few clouds at 2500 feet AGL
Weather: no significant weather observed at this time

METAR text: LIRP 251415Z 22015KT 9999 FEW025 16/12 Q1009 NOSIG
Conditions at: LIRP (PISA (CIV/IT-AFB, IT) observed 1415 UTC 25 February 2020
Temperature: 16.0°C (61°F)
Dewpoint: 12.0°C (54°F) [RH = 77%]
Pressure (altimeter): 29.79 inches Hg (1009.0 mb)
Winds: from the SW (220 degrees) at 17 MPH (15 knots; 7.7 m/s)
Visibility: 6 or more miles (10+ km)
Ceiling: at least 12,000 feet AGL
Clouds: few clouds at 2500 feet AGL
Weather: no significant weather observed at this time

METAR text: LIRP 251345Z 22013KT 9999 FEW025 16/12 Q1009 NOSIG
Conditions at: LIRP (PISA (CIV/IT-AFB, IT) observed 1345 UTC 25 February 2020
Temperature: 16.0°C (61°F)
Dewpoint: 12.0°C (54°F) [RH = 77%]
Pressure (altimeter): 29.79 inches Hg (1009.0 mb)
Winds: from the SW (220 degrees) at 15 MPH (13 knots; 6.7 m/s)
Visibility: 6 or more miles (10+ km)
Ceiling: at least 12,000 feet AGL
Clouds: few clouds at 2500 feet AGL
Weather: no significant weather observed at this time

METAR text: LIRP 251315Z 23012KT 9999 FEW025 17/12 Q1010 NOSIG
Conditions at: LIRP (PISA (CIV/IT-AFB, IT) observed 1315 UTC 25 February 2020
Temperature: 17.0°C (63°F)
Dewpoint: 12.0°C (54°F) [RH = 72%]
Pressure (altimeter): 29.82 inches Hg (1010.0 mb)
Winds: from the SW (230 degrees) at 14 MPH (12 knots; 6.2 m/s)
Visibility: 6 or more miles (10+ km)
Ceiling: at least 12,000 feet AGL
Clouds: few clouds at 2500 feet AGL
Weather: no significant weather observed at this time

METAR text: LIRP 251245Z 23008KT 180V260 9999 FEW025 17/12 Q1010 NOSIG
Conditions at: LIRP (PISA (CIV/IT-AFB, IT) observed 1245 UTC 25 February 2020
Temperature: 17.0°C (63°F)
Dewpoint: 12.0°C (54°F) [RH = 72%]
Pressure (altimeter): 29.82 inches Hg (1010.0 mb)
Winds: from the SW (230 degrees) at 9 MPH (8 knots; 4.1 m/s)
Visibility: 6 or more miles (10+ km)
Ceiling: at least 12,000 feet AGL
Clouds: few clouds at 2500 feet AGL
Weather: no significant weather observed at this time

METAR text: LIRP 251215Z 17006KT 9999 FEW020 SCT040 16/12 Q1011 NOSIG
Conditions at: LIRP (PISA (CIV/IT-AFB, IT) observed 1215 UTC 25 February 2020
Temperature: 16.0°C (61°F)
Dewpoint: 12.0°C (54°F) [RH = 77%]
Pressure (altimeter): 29.85 inches Hg (1011.0 mb)
Winds: from the S (170 degrees) at 7 MPH (6 knots; 3.1 m/s)
Visibility: 6 or more miles (10+ km)
Ceiling: at least 12,000 feet AGL
Clouds: few clouds at 2000 feet AGL
scattered clouds at 4000 feet AGL
Weather: no significant weather observed at this time

METAR text: LIRP 251145Z 26006KT 220V360 9999 FEW020 BKN040 15/11 Q1012 NOSIG
Conditions at: LIRP (PISA (CIV/IT-AFB, IT) observed 1145 UTC 25 February 2020
Temperature: 15.0°C (59°F)
Dewpoint: 11.0°C (52°F) [RH = 77%]
Pressure (altimeter): 29.88 inches Hg (1012.0 mb)
Winds: from the W (260 degrees) at 7 MPH (6 knots; 3.1 m/s)
Visibility: 6 or more miles (10+ km)
Ceiling: 4000 feet AGL
Clouds: few clouds at 2000 feet AGL
broken clouds at 4000 feet AGL
Weather: no significant weather observed at this time

METAR text: LIRP 251115Z VRB02KT 9999 FEW015 SCT030 15/12 Q1012 NOSIG
Conditions at: LIRP (PISA (CIV/IT-AFB, IT) observed 1115 UTC 25 February 2020
Temperature: 15.0°C (59°F)
Dewpoint: 12.0°C (54°F) [RH = 82%]
Pressure (altimeter): 29.88 inches Hg (1012.0 mb)
Winds: variable direction winds at 2 MPH (2 knots; 1.0 m/s)
Visibility: 6 or more miles (10+ km)
Ceiling: at least 12,000 feet AGL
Clouds: few clouds at 1500 feet AGL
scattered clouds at 3000 feet AGL
Weather: no significant weather observed at this time

METAR text: LIRP 251045Z 26003KT 200V320 9999 FEW015 SCT030 14/11 Q1013 NOSIG
Conditions at: LIRP (PISA (CIV/IT-AFB, IT) observed 1045 UTC 25 February 2020
Temperature: 14.0°C (57°F)
Dewpoint: 11.0°C (52°F) [RH = 82%]
Pressure (altimeter): 29.91 inches Hg (1013.0 mb)
Winds: from the W (260 degrees) at 3 MPH (3 knots; 1.5 m/s)
Visibility: 6 or more miles (10+ km)
Ceiling: at least 12,000 feet AGL
Clouds: few clouds at 1500 feet AGL
scattered clouds at 3000 feet AGL
Weather: no significant weather observed at this time

Forecast for: LIRP (PISA (CIV/IT-AFB, IT)
Text: TAF LIRP 261700Z 2618/2718 30012KT 9999 SCT030
Forecast period: 1800 UTC 26 February 2020 to 0600 UTC 27 February 2020
Forecast type: FROM: standard forecast or significant change
Winds: from the WNW (300 degrees) at 14 MPH (12 knots; 6.2 m/s)
Visibility: 6 or more miles 10+ km)
Ceiling: at least 12,000 feet AGL
Clouds: scattered clouds at 3000 feet AGL
Weather: no significant weather forecast for this period
Text: BECMG 2706/2708 12008KT
Forecast period: 0600 to 1000 UTC 27 February 2020
Forecast type: BECOMING: Conditions expected to become as follows by 0800 UTC 27 February 2020
Winds: from the ESE (120 degrees) at 9 MPH (8 knots; 4.1 m/s)
Visibility: 6 or more miles 10+ km)
Ceiling: at least 12,000 feet AGL
Clouds: scattered clouds at 3000 feet AGL
Weather: no significant weather forecast for this period
Text: BECMG 2710/2312 27015KT 9999 SCT030 SCT060
Forecast period: 1000 to 1800 UTC 27 February 2020
Forecast type: BECOMING: Conditions expected to become as follows by 1200 UTC 23 February 2020
Winds: from the W (270 degrees) at 17 MPH (15 knots; 7.7 m/s)
Visibility: 6 or more miles 10+ km)
Ceiling: at least 12,000 feet AGL
Clouds: scattered clouds at 3000 feet AGL
scattered clouds at 6000 feet AGL
Weather: no significant weather forecast for this period
Text: TEMPO 2712/2718 27015G30KT 3000 SHRA BKN015
Forecast period: 1200 to 1800 UTC 27 February 2020
Forecast type: TEMPORARY: The following changes expected for less than half the time period
Winds: from the W (270 degrees) at 17 MPH (15 knots; 7.7 m/s)
gusting to 34 MPH (30 knots; 15.4 m/s)
Visibility: 1.86 miles (2.99 km)
Ceiling: 1500 feet AGL
Clouds: broken clouds at 1500 feet AGL
Weather: SHRA  (rain showers)